Time;durP1;ratioP1;P1;durP2;ratioP2;P2;SDS_P1;SDS_P2;PMS_P1;PMS_P2;Temp;Humidity;BMP_temperature;BMP_pressure;BME280_temperature;BME280_humidity;BME280_pressure;Samples;Min_cycle;Max_cycle;Signal;HPM_P1;HPM_P2
2019/10/15 00:02:35;;;;;;;2.81;1.87;;;;;;;20.11;58.45;99900.23;;;;-54
2019/10/15 00:05:35;;;;;;;2.00;1.80;;;;;;;20.10;58.46;99902.22;;;;-53
2019/10/15 00:08:35;;;;;;;1.70;1.60;;;;;;;20.09;58.43;99900.34;;;;-49
2019/10/15 00:11:35;;;;;;;1.93;1.70;;;;;;;20.10;58.46;99903.16;;;;-49
2019/10/15 00:14:35;;;;;;;1.71;1.61;;;;;;;20.09;58.46;99897.42;;;;-60
2019/10/15 00:17:35;;;;;;;1.74;1.63;;;;;;;20.10;58.46;99899.54;;;;-49
2019/10/15 00:20:35;;;;;;;2.73;1.75;;;;;;;20.09;58.46;99894.64;;;;-60
2019/10/15 00:23:35;;;;;;;1.81;1.71;;;;;;;20.08;58.46;99891.19;;;;-60
2019/10/15 00:26:35;;;;;;;1.88;1.77;;;;;;;20.09;58.48;99889.28;;;;-51
2019/10/15 00:29:35;;;;;;;1.71;1.60;;;;;;;20.08;58.46;99890.59;;;;-59
2019/10/15 00:32:35;;;;;;;1.91;1.69;;;;;;;20.08;58.46;99890.25;;;;-51
2019/10/15 00:35:35;;;;;;;1.62;1.52;;;;;;;20.08;58.46;99891.59;;;;-52
2019/10/15 00:38:35;;;;;;;1.77;1.60;;;;;;;20.07;58.49;99884.69;;;;-51
2019/10/15 00:41:35;;;;;;;1.71;1.61;;;;;;;20.07;58.47;99886.36;;;;-51
2019/10/15 00:44:35;;;;;;;1.70;1.60;;;;;;;20.06;58.47;99876.04;;;;-60
2019/10/15 00:47:35;;;;;;;1.91;1.61;;;;;;;20.06;58.46;99874.86;;;;-51
2019/10/15 00:50:35;;;;;;;1.99;1.63;;;;;;;20.06;58.48;99869.67;;;;-52
2019/10/15 00:53:35;;;;;;;2.11;1.63;;;;;;;20.05;58.48;99866.72;;;;-49
2019/10/15 00:56:35;;;;;;;1.99;1.80;;;;;;;20.05;58.46;99860.02;;;;-60
2019/10/15 00:59:35;;;;;;;2.03;1.69;;;;;;;20.04;58.48;99857.03;;;;-60
2019/10/15 01:02:35;;;;;;;1.87;1.68;;;;;;;20.04;58.49;99857.13;;;;-49
2019/10/15 01:05:35;;;;;;;1.81;1.70;;;;;;;20.04;58.46;99854.34;;;;-51
2019/10/15 01:08:35;;;;;;;1.87;1.69;;;;;;;20.03;58.49;99853.58;;;;-60
2019/10/15 01:11:35;;;;;;;1.76;1.66;;;;;;;20.03;58.49;99856.77;;;;-49
2019/10/15 01:14:35;;;;;;;1.82;1.70;;;;;;;20.03;58.48;99848.72;;;;-53
2019/10/15 01:17:35;;;;;;;1.73;1.63;;;;;;;20.03;58.49;99854.98;;;;-53
2019/10/15 01:20:35;;;;;;;1.95;1.77;;;;;;;20.03;58.49;99850.23;;;;-53
2019/10/15 01:23:35;;;;;;;1.81;1.70;;;;;;;20.03;58.47;99850.36;;;;-49
2019/10/15 01:26:35;;;;;;;1.70;1.60;;;;;;;20.03;58.46;99845.77;;;;-59
2019/10/15 01:29:35;;;;;;;2.17;1.71;;;;;;;20.03;58.49;99841.81;;;;-49
2019/10/15 01:32:35;;;;;;;2.39;1.70;;;;;;;20.02;58.48;99844.73;;;;-53
2019/10/15 01:35:35;;;;;;;2.27;1.79;;;;;;;20.01;58.49;99839.00;;;;-49
2019/10/15 01:38:35;;;;;;;1.98;1.69;;;;;;;20.02;58.47;99837.42;;;;-51
2019/10/15 01:41:35;;;;;;;1.75;1.60;;;;;;;20.01;58.47;99829.95;;;;-51
2019/10/15 01:44:35;;;;;;;3.99;1.80;;;;;;;20.01;58.46;99827.03;;;;-51
2019/10/15 01:47:35;;;;;;;1.97;1.77;;;;;;;20.01;58.47;99826.03;;;;-53
2019/10/15 01:50:35;;;;;;;2.00;1.79;;;;;;;20.01;58.47;99828.01;;;;-59
2019/10/15 01:53:35;;;;;;;1.99;1.80;;;;;;;20.01;58.49;99807.49;;;;-49
2019/10/15 01:56:35;;;;;;;1.80;1.70;;;;;;;20.01;58.50;99819.16;;;;-50
2019/10/15 01:59:35;;;;;;;1.79;1.60;;;;;;;20.00;58.48;99807.96;;;;-53
2019/10/15 02:02:35;;;;;;;1.84;1.67;;;;;;;20.00;58.47;99800.66;;;;-51
2019/10/15 02:05:35;;;;;;;1.70;1.60;;;;;;;19.99;58.48;99800.32;;;;-52
2019/10/15 02:08:35;;;;;;;1.89;1.77;;;;;;;19.99;58.48;99796.47;;;;-51
2019/10/15 02:11:35;;;;;;;2.41;1.79;;;;;;;20.00;58.48;99791.94;;;;-51
2019/10/15 02:14:35;;;;;;;2.83;1.65;;;;;;;20.00;58.48;99796.47;;;;-59
2019/10/15 02:17:35;;;;;;;1.80;1.70;;;;;;;19.99;58.47;99797.10;;;;-49
2019/10/15 02:20:35;;;;;;;1.85;1.75;;;;;;;19.99;58.48;99794.35;;;;-49
2019/10/15 02:23:35;;;;;;;1.90;1.71;;;;;;;19.98;58.49;99781.95;;;;-53
2019/10/15 02:26:35;;;;;;;1.95;1.75;;;;;;;19.98;58.49;99779.20;;;;-60
2019/10/15 02:29:35;;;;;;;1.94;1.71;;;;;;;19.98;58.49;99776.19;;;;-53
2019/10/15 02:32:35;;;;;;;1.69;1.59;;;;;;;19.98;58.46;99764.80;;;;-53
2019/10/15 02:35:35;;;;;;;1.77;1.66;;;;;;;19.97;58.49;99756.81;;;;-60
2019/10/15 02:38:35;;;;;;;1.89;1.75;;;;;;;19.97;58.49;99757.89;;;;-60
2019/10/15 02:41:35;;;;;;;2.33;1.64;;;;;;;19.97;58.47;99756.28;;;;-59
2019/10/15 02:44:35;;;;;;;1.80;1.70;;;;;;;19.96;58.50;99758.46;;;;-52
2019/10/15 02:47:35;;;;;;;1.92;1.80;;;;;;;19.97;58.51;99760.30;;;;-53
2019/10/15 02:50:35;;;;;;;2.03;1.80;;;;;;;19.97;58.50;99750.75;;;;-53
2019/10/15 02:53:35;;;;;;;1.71;1.61;;;;;;;19.96;58.49;99749.37;;;;-51
2019/10/15 02:56:35;;;;;;;1.70;1.60;;;;;;;19.96;58.48;99742.37;;;;-60
2019/10/15 02:59:35;;;;;;;1.81;1.71;;;;;;;19.96;58.46;99744.48;;;;-53
2019/10/15 03:02:35;;;;;;;1.92;1.70;;;;;;;19.95;58.49;99737.08;;;;-49
2019/10/15 03:05:35;;;;;;;1.89;1.60;;;;;;;19.95;58.49;99731.89;;;;-49
2019/10/15 03:08:35;;;;;;;1.80;1.65;;;;;;;19.95;58.47;99721.02;;;;-52
2019/10/15 03:11:35;;;;;;;1.84;1.67;;;;;;;19.96;58.48;99717.47;;;;-51
2019/10/15 03:14:35;;;;;;;1.76;1.66;;;;;;;19.95;58.48;99713.16;;;;-51
2019/10/15 03:17:35;;;;;;;1.71;1.61;;;;;;;19.95;58.50;99711.07;;;;-60
2019/10/15 03:20:35;;;;;;;1.72;1.62;;;;;;;19.93;58.47;99708.03;;;;-60
2019/10/15 03:23:35;;;;;;;1.85;1.70;;;;;;;19.94;58.50;99706.69;;;;-52
2019/10/15 03:26:35;;;;;;;1.97;1.82;;;;;;;19.94;58.47;99698.88;;;;-49
2019/10/15 03:29:35;;;;;;;1.87;1.71;;;;;;;19.94;58.46;99701.89;;;;-53
2019/10/15 03:32:35;;;;;;;2.25;1.63;;;;;;;19.94;58.50;99700.52;;;;-60
2019/10/15 03:37:35;;;;;;;1.77;1.67;;;;;;;19.92;58.51;99693.25;;;;-50
2019/10/15 03:40:35;;;;;;;2.01;1.81;;;;;;;19.93;58.47;99691.34;;;;-53
2019/10/15 03:43:35;;;;;;;1.75;1.65;;;;;;;19.93;58.49;99695.42;;;;-53
2019/10/15 03:46:35;;;;;;;1.73;1.63;;;;;;;19.92;58.50;99694.42;;;;-53
2019/10/15 03:49:35;;;;;;;1.85;1.70;;;;;;;19.93;58.49;99691.41;;;;-49
2019/10/15 03:52:35;;;;;;;1.75;1.65;;;;;;;19.92;58.50;99687.86;;;;-51
2019/10/15 03:55:35;;;;;;;2.21;1.83;;;;;;;19.92;58.49;99686.25;;;;-60
2019/10/15 03:58:35;;;;;;;2.01;1.81;;;;;;;19.92;58.51;99682.36;;;;-51
2019/10/15 04:01:35;;;;;;;1.92;1.78;;;;;;;19.92;58.48;99678.64;;;;-51
2019/10/15 04:04:35;;;;;;;1.80;1.70;;;;;;;19.92;58.46;99675.66;;;;-53
2019/10/15 04:07:35;;;;;;;1.71;1.61;;;;;;;19.91;58.50;99674.11;;;;-53
2019/10/15 04:10:35;;;;;;;1.93;1.80;;;;;;;19.92;58.48;99670.19;;;;-49
2019/10/15 04:13:35;;;;;;;2.16;1.72;;;;;;;19.92;58.46;99669.25;;;;-49
2019/10/15 04:16:35;;;;;;;2.05;1.83;;;;;;;19.91;58.48;99663.52;;;;-49
2019/10/15 04:19:35;;;;;;;1.67;1.57;;;;;;;19.90;58.49;99651.30;;;;-49
2019/10/15 04:22:35;;;;;;;1.87;1.75;;;;;;;19.92;58.47;99654.34;;;;-60
2019/10/15 04:25:35;;;;;;;1.81;1.71;;;;;;;19.90;58.48;99650.80;;;;-60
2019/10/15 04:28:35;;;;;;;1.81;1.71;;;;;;;19.90;58.47;99651.97;;;;-52
2019/10/15 04:31:35;;;;;;;1.72;1.62;;;;;;;19.91;58.48;99646.77;;;;-52
2019/10/15 04:34:35;;;;;;;1.75;1.58;;;;;;;19.90;58.47;99644.66;;;;-49
2019/10/15 04:37:35;;;;;;;1.81;1.71;;;;;;;19.90;58.48;99648.34;;;;-51
2019/10/15 04:40:35;;;;;;;1.83;1.71;;;;;;;19.91;58.48;99644.25;;;;-53
2019/10/15 04:43:35;;;;;;;1.74;1.64;;;;;;;19.91;58.47;99633.80;;;;-51
2019/10/15 04:46:35;;;;;;;1.70;1.60;;;;;;;19.92;58.42;99626.92;;;;-51
2019/10/15 04:49:35;;;;;;;1.81;1.68;;;;;;;19.92;58.36;99617.17;;;;-49
2019/10/15 04:52:35;;;;;;;1.74;1.64;;;;;;;19.94;58.35;99604.53;;;;-60
2019/10/15 04:55:35;;;;;;;1.85;1.71;;;;;;;19.96;58.27;99597.81;;;;-53
2019/10/15 04:58:35;;;;;;;1.70;1.60;;;;;;;19.97;58.28;99596.94;;;;-60
2019/10/15 05:01:35;;;;;;;1.71;1.61;;;;;;;19.99;58.13;99594.58;;;;-60
2019/10/15 05:04:35;;;;;;;2.53;1.71;;;;;;;20.02;58.17;99590.14;;;;-60
2019/10/15 05:07:35;;;;;;;1.77;1.67;;;;;;;20.05;58.24;99584.94;;;;-52
2019/10/15 05:10:35;;;;;;;1.79;1.60;;;;;;;20.07;58.26;99591.05;;;;-50
2019/10/15 05:13:35;;;;;;;1.67;1.57;;;;;;;20.11;58.27;99590.97;;;;-53
2019/10/15 05:16:35;;;;;;;1.83;1.70;;;;;;;20.13;58.28;99593.88;;;;-59
2019/10/15 05:19:35;;;;;;;1.70;1.60;;;;;;;20.16;58.41;99590.00;;;;-60
2019/10/15 05:22:35;;;;;;;1.81;1.71;;;;;;;20.18;58.45;99589.75;;;;-60
2019/10/15 05:25:35;;;;;;;1.71;1.61;;;;;;;20.21;58.47;99586.55;;;;-60
2019/10/15 05:28:35;;;;;;;1.79;1.69;;;;;;;20.23;58.51;99584.02;;;;-51
2019/10/15 05:31:35;;;;;;;1.80;1.70;;;;;;;20.25;58.49;99574.75;;;;-51
2019/10/15 05:34:35;;;;;;;1.80;1.70;;;;;;;20.28;58.54;99576.15;;;;-51
2019/10/15 05:37:35;;;;;;;1.61;1.51;;;;;;;20.29;58.49;99577.98;;;;-53
2019/10/15 05:40:35;;;;;;;1.68;1.58;;;;;;;20.31;58.53;99569.72;;;;-59
2019/10/15 05:43:35;;;;;;;1.70;1.60;;;;;;;20.33;58.54;99567.33;;;;-59
2019/10/15 05:46:35;;;;;;;1.69;1.59;;;;;;;20.34;58.50;99562.83;;;;-49
2019/10/15 05:49:35;;;;;;;1.63;1.53;;;;;;;20.36;58.55;99562.81;;;;-49
2019/10/15 05:52:35;;;;;;;2.21;1.63;;;;;;;20.36;58.53;99559.28;;;;-49
2019/10/15 05:55:35;;;;;;;1.79;1.69;;;;;;;20.38;58.47;99558.84;;;;-49
2019/10/15 05:58:35;;;;;;;1.70;1.60;;;;;;;20.39;58.50;99561.95;;;;-49
2019/10/15 06:01:35;;;;;;;1.87;1.69;;;;;;;20.41;58.44;99568.55;;;;-50
2019/10/15 06:04:35;;;;;;;2.11;1.60;;;;;;;20.41;58.44;99581.55;;;;-49
2019/10/15 06:07:35;;;;;;;1.71;1.61;;;;;;;20.42;58.41;99584.60;;;;-49
2019/10/15 06:10:35;;;;;;;1.68;1.58;;;;;;;20.43;58.41;99591.47;;;;-50
2019/10/15 06:13:35;;;;;;;1.78;1.68;;;;;;;20.44;58.41;99596.13;;;;-49
2019/10/15 06:16:35;;;;;;;1.69;1.59;;;;;;;20.44;58.34;99607.44;;;;-50
2019/10/15 06:19:35;;;;;;;1.71;1.61;;;;;;;20.44;58.32;99612.13;;;;-49
2019/10/15 06:22:35;;;;;;;1.55;1.45;;;;;;;20.44;58.33;99612.83;;;;-49
2019/10/15 06:25:35;;;;;;;1.71;1.58;;;;;;;20.45;58.33;99621.48;;;;-49
2019/10/15 06:28:35;;;;;;;1.71;1.61;;;;;;;20.45;58.31;99626.34;;;;-49
2019/10/15 06:31:35;;;;;;;1.60;1.50;;;;;;;20.46;58.30;99626.54;;;;-49
2019/10/15 06:34:35;;;;;;;2.67;1.61;;;;;;;20.46;58.28;99622.41;;;;-49
2019/10/15 06:37:35;;;;;;;1.71;1.60;;;;;;;20.46;58.28;99616.71;;;;-49
2019/10/15 06:40:35;;;;;;;1.67;1.57;;;;;;;20.46;58.28;99612.62;;;;-51
2019/10/15 06:43:35;;;;;;;1.60;1.50;;;;;;;20.46;58.25;99622.34;;;;-51
2019/10/15 06:46:35;;;;;;;1.63;1.53;;;;;;;20.46;58.15;99627.95;;;;-49
2019/10/15 06:49:35;;;;;;;1.53;1.43;;;;;;;20.46;58.18;99633.66;;;;-51
2019/10/15 06:52:35;;;;;;;1.60;1.50;;;;;;;20.47;58.20;99639.31;;;;-51
2019/10/15 06:55:35;;;;;;;1.75;1.60;;;;;;;20.46;58.05;99634.59;;;;-49
2019/10/15 06:58:35;;;;;;;1.71;1.50;;;;;;;20.46;58.10;99633.58;;;;-49
2019/10/15 07:01:35;;;;;;;1.53;1.43;;;;;;;20.47;58.11;99639.82;;;;-53
2019/10/15 07:04:35;;;;;;;1.63;1.53;;;;;;;20.47;58.06;99639.65;;;;-52
2019/10/15 07:07:36;;;;;;;3.37;1.77;;;;;;;20.46;58.21;99639.89;;;;-49
2019/10/15 07:10:35;;;;;;;3.93;2.35;;;;;;;20.47;58.12;99642.56;;;;-55
2019/10/15 07:13:35;;;;;;;6.00;2.28;;;;;;;20.49;58.29;99642.95;;;;-55
2019/10/15 07:16:35;;;;;;;6.30;2.29;;;;;;;20.50;58.34;99642.34;;;;-51
2019/10/15 07:19:35;;;;;;;3.35;1.90;;;;;;;20.52;58.50;99642.20;;;;-59
2019/10/15 07:22:35;;;;;;;2.11;1.81;;;;;;;20.53;58.56;99638.53;;;;-54
2019/10/15 07:25:35;;;;;;;2.14;1.89;;;;;;;20.54;58.58;99628.43;;;;-57
2019/10/15 07:28:35;;;;;;;5.66;2.47;;;;;;;20.58;58.56;99626.66;;;;-51
2019/10/15 07:31:35;;;;;;;7.89;2.53;;;;;;;20.57;58.33;99620.20;;;;-51
2019/10/15 07:34:35;;;;;;;4.03;2.71;;;;;;;20.57;58.33;99617.34;;;;-50
2019/10/15 07:37:35;;;;;;;6.88;2.54;;;;;;;20.60;58.59;99610.03;;;;-58
2019/10/15 07:40:35;;;;;;;3.51;2.30;;;;;;;20.61;58.67;99596.91;;;;-56
2019/10/15 07:43:35;;;;;;;7.27;2.56;;;;;;;20.63;58.72;99596.86;;;;-52
2019/10/15 07:46:35;;;;;;;3.44;2.25;;;;;;;20.66;58.64;99603.99;;;;-51
2019/10/15 07:49:35;;;;;;;4.01;2.37;;;;;;;20.68;58.68;99603.37;;;;-54
2019/10/15 07:52:35;;;;;;;3.48;2.23;;;;;;;20.68;58.51;99600.92;;;;-54
2019/10/15 07:55:35;;;;;;;6.93;2.56;;;;;;;20.67;58.70;99579.59;;;;-59
2019/10/15 07:58:35;;;;;;;4.87;2.42;;;;;;;20.68;58.60;99583.14;;;;-50
2019/10/15 08:01:35;;;;;;;6.64;2.47;;;;;;;20.68;58.65;99587.84;;;;-50
2019/10/15 08:04:35;;;;;;;4.52;2.32;;;;;;;20.69;58.61;99576.05;;;;-48
2019/10/15 08:07:35;;;;;;;5.17;2.39;;;;;;;20.69;58.55;99561.02;;;;-52
2019/10/15 08:10:35;;;;;;;5.53;2.32;;;;;;;20.69;58.33;99556.75;;;;-49
2019/10/15 08:13:35;;;;;;;5.48;2.58;;;;;;;20.68;58.37;99552.61;;;;-50
2019/10/15 08:16:35;;;;;;;3.65;2.31;;;;;;;20.68;58.37;99550.86;;;;-49
2019/10/15 08:19:35;;;;;;;3.79;2.37;;;;;;;20.67;58.44;99543.36;;;;-49
2019/10/15 08:22:35;;;;;;;5.22;2.48;;;;;;;20.65;58.45;99542.55;;;;-49
2019/10/15 08:25:35;;;;;;;4.89;2.23;;;;;;;20.64;58.40;99539.34;;;;-49
2019/10/15 08:28:35;;;;;;;3.49;2.25;;;;;;;20.63;58.37;99533.45;;;;-49
2019/10/15 08:31:35;;;;;;;3.06;2.21;;;;;;;20.63;58.35;99530.34;;;;-49
2019/10/15 08:34:35;;;;;;;4.42;2.41;;;;;;;20.62;58.29;99530.23;;;;-49
2019/10/15 08:37:35;;;;;;;3.07;2.21;;;;;;;20.61;58.27;99539.88;;;;-49
2019/10/15 08:40:35;;;;;;;3.29;2.10;;;;;;;20.60;58.27;99548.30;;;;-49
2019/10/15 08:43:35;;;;;;;3.41;2.32;;;;;;;20.59;58.22;99557.75;;;;-49
2019/10/15 08:46:35;;;;;;;2.45;2.16;;;;;;;20.59;58.25;99564.45;;;;-49
2019/10/15 08:49:35;;;;;;;2.69;2.25;;;;;;;20.58;58.20;99583.98;;;;-49
2019/10/15 08:52:35;;;;;;;2.81;2.43;;;;;;;20.57;58.23;99583.89;;;;-49
2019/10/15 08:55:35;;;;;;;3.41;2.29;;;;;;;20.57;58.17;99585.70;;;;-49
2019/10/15 08:58:35;;;;;;;2.92;2.42;;;;;;;20.56;58.17;99591.89;;;;-53
2019/10/15 09:01:35;;;;;;;3.14;2.09;;;;;;;20.55;58.13;99603.03;;;;-53
2019/10/15 09:04:35;;;;;;;3.77;2.20;;;;;;;20.55;58.15;99613.20;;;;-53
2019/10/15 09:07:35;;;;;;;3.22;2.21;;;;;;;20.54;58.13;99615.42;;;;-53
2019/10/15 09:10:35;;;;;;;4.43;2.13;;;;;;;20.53;58.09;99614.98;;;;-53
2019/10/15 09:13:35;;;;;;;2.87;2.35;;;;;;;20.52;58.09;99619.08;;;;-53
2019/10/15 09:16:35;;;;;;;2.95;2.21;;;;;;;20.52;58.10;99626.63;;;;-52
2019/10/15 09:19:35;;;;;;;5.16;2.45;;;;;;;20.51;58.10;99630.13;;;;-53
2019/10/15 09:22:35;;;;;;;3.23;2.31;;;;;;;20.52;58.11;99630.86;;;;-53
2019/10/15 09:25:35;;;;;;;3.05;2.24;;;;;;;20.51;58.05;99635.53;;;;-52
2019/10/15 09:28:35;;;;;;;2.69;2.15;;;;;;;20.50;58.05;99630.91;;;;-53
2019/10/15 09:31:35;;;;;;;3.45;2.17;;;;;;;20.50;58.07;99628.96;;;;-53
2019/10/15 09:34:35;;;;;;;3.57;2.35;;;;;;;20.49;58.03;99628.30;;;;-53
2019/10/15 09:37:35;;;;;;;2.57;2.11;;;;;;;20.48;58.06;99626.83;;;;-53
2019/10/15 09:40:35;;;;;;;3.67;2.19;;;;;;;20.47;58.07;99622.98;;;;-53
2019/10/15 09:43:35;;;;;;;2.61;2.02;;;;;;;20.47;58.03;99619.76;;;;-53
2019/10/15 09:46:35;;;;;;;4.69;2.14;;;;;;;20.46;58.03;99614.13;;;;-53
2019/10/15 09:49:35;;;;;;;4.13;2.25;;;;;;;20.45;58.07;99615.20;;;;-53
2019/10/15 09:52:35;;;;;;;3.63;2.21;;;;;;;20.45;58.05;99614.94;;;;-53
2019/10/15 09:55:35;;;;;;;2.19;1.99;;;;;;;20.44;58.05;99611.98;;;;-52
2019/10/15 09:58:35;;;;;;;2.38;2.18;;;;;;;20.44;58.02;99611.48;;;;-53
2019/10/15 10:01:35;;;;;;;3.48;1.93;;;;;;;20.43;58.00;99609.45;;;;-53
2019/10/15 10:04:35;;;;;;;2.10;1.99;;;;;;;20.43;57.98;99609.08;;;;-53
2019/10/15 10:07:35;;;;;;;2.49;2.17;;;;;;;20.43;58.01;99614.22;;;;-53
2019/10/15 10:10:35;;;;;;;2.21;1.98;;;;;;;20.42;58.04;99617.20;;;;-52
2019/10/15 10:13:35;;;;;;;2.41;2.17;;;;;;;20.42;58.01;99609.33;;;;-53
2019/10/15 10:16:35;;;;;;;2.30;2.09;;;;;;;20.42;58.03;99603.86;;;;-52
2019/10/15 10:19:35;;;;;;;2.57;2.15;;;;;;;20.40;58.01;99598.63;;;;-53
2019/10/15 10:22:35;;;;;;;3.25;2.05;;;;;;;20.40;57.99;99597.36;;;;-53
2019/10/15 10:25:35;;;;;;;2.26;2.06;;;;;;;20.39;57.99;99593.48;;;;-52
2019/10/15 10:28:35;;;;;;;2.85;1.94;;;;;;;20.39;57.99;99595.25;;;;-53
2019/10/15 10:31:35;;;;;;;2.18;1.97;;;;;;;20.39;57.98;99612.03;;;;-53
2019/10/15 10:34:35;;;;;;;2.59;2.15;;;;;;;20.37;58.07;99609.52;;;;-52
2019/10/15 10:37:35;;;;;;;3.01;2.09;;;;;;;20.37;58.02;99606.00;;;;-52
2019/10/15 10:42:35;;;;;;;2.18;1.98;;;;;;;20.36;58.04;99610.60;;;;-53
2019/10/15 10:45:35;;;;;;;2.27;2.07;;;;;;;20.36;58.01;99604.56;;;;-53
2019/10/15 10:48:35;;;;;;;2.93;2.00;;;;;;;20.34;58.03;99602.66;;;;-52
2019/10/15 10:51:35;;;;;;;2.22;2.02;;;;;;;20.34;58.06;99604.84;;;;-53
2019/10/15 10:54:35;;;;;;;1.85;1.73;;;;;;;20.34;58.07;99609.20;;;;-53
2019/10/15 10:57:35;;;;;;;2.15;1.95;;;;;;;20.34;58.04;99609.28;;;;-53
2019/10/15 11:00:35;;;;;;;2.23;1.89;;;;;;;20.33;58.07;99603.64;;;;-53
2019/10/15 11:03:35;;;;;;;2.29;2.00;;;;;;;20.33;58.04;99602.61;;;;-53
2019/10/15 11:06:35;;;;;;;1.99;1.82;;;;;;;20.33;58.06;99606.06;;;;-53
2019/10/15 11:09:35;;;;;;;1.85;1.75;;;;;;;20.32;58.03;99600.34;;;;-53
2019/10/15 11:12:35;;;;;;;2.30;2.10;;;;;;;20.33;58.07;99605.13;;;;-52
2019/10/15 11:15:35;;;;;;;2.14;1.91;;;;;;;20.31;58.07;99597.39;;;;-52
2019/10/15 11:18:35;;;;;;;2.10;1.93;;;;;;;20.31;58.06;99597.22;;;;-53
2019/10/15 11:21:35;;;;;;;1.94;1.84;;;;;;;20.31;58.07;99597.45;;;;-52
2019/10/15 11:24:35;;;;;;;2.20;2.00;;;;;;;20.30;58.08;99601.95;;;;-53
2019/10/15 11:27:35;;;;;;;2.25;1.91;;;;;;;20.30;58.05;99609.44;;;;-53
2019/10/15 11:30:35;;;;;;;2.70;1.94;;;;;;;20.29;58.07;99611.48;;;;-52
2019/10/15 11:33:35;;;;;;;2.57;2.10;;;;;;;20.29;58.08;99611.92;;;;-53
2019/10/15 11:36:35;;;;;;;2.54;2.06;;;;;;;20.29;58.08;99615.27;;;;-53
2019/10/15 11:39:35;;;;;;;2.13;1.93;;;;;;;20.28;58.07;99604.25;;;;-52
2019/10/15 11:42:35;;;;;;;2.13;1.91;;;;;;;20.27;58.10;99600.39;;;;-52
2019/10/15 11:45:35;;;;;;;1.96;1.86;;;;;;;20.27;58.07;99605.73;;;;-53
2019/10/15 11:48:35;;;;;;;2.57;1.99;;;;;;;20.27;58.09;99604.63;;;;-53
2019/10/15 11:51:35;;;;;;;2.15;1.91;;;;;;;20.26;58.09;99606.88;;;;-52
2019/10/15 11:54:35;;;;;;;2.24;2.04;;;;;;;20.26;58.07;99604.19;;;;-52
2019/10/15 11:57:35;;;;;;;2.53;1.95;;;;;;;20.26;58.09;99602.95;;;;-53
2019/10/15 12:00:35;;;;;;;1.90;1.80;;;;;;;20.25;58.08;99600.72;;;;-53
2019/10/15 12:03:35;;;;;;;1.86;1.76;;;;;;;20.25;58.07;99602.75;;;;-52
2019/10/15 12:06:35;;;;;;;1.94;1.81;;;;;;;20.25;58.09;99599.70;;;;-53
2019/10/15 12:09:35;;;;;;;1.97;1.87;;;;;;;20.25;58.10;99596.69;;;;-53
2019/10/15 12:12:35;;;;;;;2.06;1.89;;;;;;;20.25;58.12;99595.61;;;;-52
2019/10/15 12:15:35;;;;;;;1.80;1.70;;;;;;;20.24;58.08;99594.61;;;;-53
2019/10/15 12:18:35;;;;;;;2.12;1.83;;;;;;;20.24;58.14;99587.10;;;;-53
2019/10/15 12:21:35;;;;;;;2.32;1.65;;;;;;;20.24;58.10;99591.83;;;;-48
2019/10/15 12:24:35;;;;;;;2.80;1.75;;;;;;;20.26;58.16;99592.98;;;;-50
2019/10/15 12:27:35;;;;;;;5.21;1.92;;;;;;;20.28;58.25;99594.45;;;;-52
2019/10/15 12:30:35;;;;;;;4.10;1.98;;;;;;;20.31;58.44;99598.70;;;;-57
2019/10/15 12:33:35;;;;;;;4.70;1.95;;;;;;;20.32;58.40;99596.91;;;;-52
2019/10/15 12:36:35;;;;;;;5.25;2.11;;;;;;;20.33;58.38;99594.09;;;;-54
2019/10/15 12:39:35;;;;;;;4.39;2.10;;;;;;;20.34;58.36;99587.73;;;;-53
2019/10/15 12:42:35;;;;;;;3.55;1.89;;;;;;;20.36;58.40;99582.66;;;;-52
2019/10/15 12:45:35;;;;;;;3.51;1.93;;;;;;;20.38;58.40;99586.07;;;;-60
2019/10/15 12:48:35;;;;;;;2.77;2.12;;;;;;;20.39;58.43;99592.23;;;;-53
2019/10/15 12:51:35;;;;;;;2.22;1.90;;;;;;;20.40;58.42;99598.70;;;;-51
2019/10/15 12:54:35;;;;;;;3.81;1.97;;;;;;;20.40;58.44;99609.27;;;;-48
2019/10/15 12:57:35;;;;;;;3.29;2.15;;;;;;;20.42;58.41;99607.24;;;;-51
2019/10/15 13:00:35;;;;;;;3.44;1.91;;;;;;;20.43;58.41;99603.55;;;;-51
2019/10/15 13:03:35;;;;;;;2.54;2.05;;;;;;;20.43;58.41;99604.92;;;;-57
2019/10/15 13:06:35;;;;;;;5.51;2.10;;;;;;;20.43;58.45;99607.60;;;;-53
2019/10/15 13:09:35;;;;;;;3.52;2.00;;;;;;;20.44;58.42;99612.80;;;;-58
2019/10/15 13:12:35;;;;;;;3.09;1.98;;;;;;;20.45;58.41;99611.02;;;;-55
2019/10/15 13:15:35;;;;;;;3.45;2.09;;;;;;;20.46;58.42;99603.96;;;;-57
2019/10/15 13:18:35;;;;;;;4.19;2.06;;;;;;;20.46;58.45;99605.64;;;;-52
2019/10/15 13:21:35;;;;;;;3.01;2.00;;;;;;;20.47;58.46;99610.73;;;;-51
2019/10/15 13:24:35;;;;;;;2.24;2.04;;;;;;;20.48;58.40;99607.06;;;;-57
2019/10/15 13:27:35;;;;;;;2.33;2.04;;;;;;;20.48;58.38;99598.41;;;;-53
2019/10/15 13:30:35;;;;;;;2.24;1.87;;;;;;;20.50;58.47;99597.63;;;;-56
2019/10/15 13:33:35;;;;;;;4.11;1.93;;;;;;;20.50;58.58;99594.78;;;;-50
2019/10/15 13:36:35;;;;;;;4.01;2.00;;;;;;;20.51;58.49;99600.24;;;;-48
2019/10/15 13:39:35;;;;;;;2.95;2.03;;;;;;;20.51;58.57;99599.09;;;;-50
2019/10/15 13:42:35;;;;;;;2.46;2.04;;;;;;;20.51;58.40;99607.69;;;;-50
2019/10/15 13:45:35;;;;;;;2.75;1.96;;;;;;;20.49;58.38;99607.94;;;;-50
2019/10/15 13:48:35;;;;;;;2.31;1.96;;;;;;;20.49;58.32;99614.31;;;;-50
2019/10/15 13:51:35;;;;;;;3.18;1.99;;;;;;;20.49;58.31;99620.34;;;;-50
2019/10/15 13:54:35;;;;;;;3.75;2.05;;;;;;;20.49;58.28;99623.06;;;;-50
2019/10/15 13:57:35;;;;;;;2.69;2.13;;;;;;;20.47;58.26;99630.76;;;;-50
2019/10/15 14:00:35;;;;;;;2.39;1.89;;;;;;;20.48;58.26;99640.01;;;;-50
2019/10/15 14:03:35;;;;;;;2.77;2.01;;;;;;;20.48;58.22;99642.77;;;;-50
2019/10/15 14:06:35;;;;;;;3.62;1.97;;;;;;;20.47;58.18;99643.67;;;;-50
2019/10/15 14:09:35;;;;;;;2.41;2.08;;;;;;;20.47;58.17;99651.45;;;;-50
2019/10/15 14:12:35;;;;;;;2.16;1.96;;;;;;;20.46;58.13;99653.20;;;;-50
2019/10/15 14:15:35;;;;;;;2.19;1.97;;;;;;;20.45;58.15;99657.03;;;;-50
2019/10/15 14:18:35;;;;;;;2.64;1.94;;;;;;;20.46;58.11;99665.45;;;;-50
2019/10/15 14:21:35;;;;;;;2.63;1.98;;;;;;;20.46;58.13;99672.06;;;;-50
2019/10/15 14:24:35;;;;;;;2.94;1.97;;;;;;;20.45;58.09;99677.09;;;;-50
2019/10/15 14:27:35;;;;;;;2.85;2.21;;;;;;;20.45;58.06;99673.13;;;;-50
2019/10/15 14:30:35;;;;;;;2.21;1.91;;;;;;;20.46;58.04;99675.84;;;;-50
2019/10/15 14:33:35;;;;;;;2.99;1.89;;;;;;;20.45;58.07;99676.33;;;;-50
2019/10/15 14:36:35;;;;;;;2.89;1.96;;;;;;;20.45;58.04;99682.03;;;;-50
2019/10/15 14:39:35;;;;;;;2.43;1.90;;;;;;;20.43;57.99;99677.67;;;;-50
2019/10/15 14:42:35;;;;;;;2.21;1.90;;;;;;;20.45;57.98;99678.41;;;;-50
2019/10/15 14:45:35;;;;;;;2.40;1.71;;;;;;;20.44;57.98;99674.21;;;;-50
2019/10/15 14:48:35;;;;;;;3.59;1.97;;;;;;;20.44;57.98;99685.92;;;;-50
2019/10/15 14:51:35;;;;;;;2.09;1.88;;;;;;;20.44;57.96;99685.69;;;;-50
2019/10/15 14:54:35;;;;;;;2.48;2.08;;;;;;;20.43;57.94;99679.05;;;;-50
2019/10/15 14:57:35;;;;;;;2.62;1.73;;;;;;;20.44;57.94;99679.24;;;;-50
2019/10/15 15:00:35;;;;;;;1.95;1.79;;;;;;;20.43;57.97;99679.79;;;;-55
2019/10/15 15:03:35;;;;;;;2.92;1.85;;;;;;;20.43;57.89;99674.52;;;;-56
2019/10/15 15:06:35;;;;;;;1.84;1.74;;;;;;;20.43;57.90;99668.72;;;;-56
2019/10/15 15:09:35;;;;;;;2.33;1.93;;;;;;;20.43;57.91;99669.39;;;;-55
2019/10/15 15:12:35;;;;;;;2.15;1.83;;;;;;;20.42;57.92;99673.22;;;;-56
2019/10/15 15:15:35;;;;;;;2.05;1.83;;;;;;;20.41;57.91;99673.29;;;;-56
2019/10/15 15:18:35;;;;;;;1.90;1.68;;;;;;;20.42;57.91;99677.41;;;;-55
2019/10/15 15:21:35;;;;;;;2.25;1.79;;;;;;;20.40;57.92;99680.37;;;;-56
2019/10/15 15:24:35;;;;;;;5.47;2.00;;;;;;;20.41;58.13;99686.00;;;;-55
2019/10/15 15:29:35;;;;;;;2.52;1.67;;;;;;;20.46;58.19;99680.04;;;;-58
2019/10/15 15:32:35;;;;;;;5.14;1.94;;;;;;;20.48;58.44;99678.83;;;;-58
2019/10/15 15:35:35;;;;;;;4.24;2.00;;;;;;;20.49;58.43;99673.08;;;;-57
2019/10/15 15:38:35;;;;;;;4.35;1.80;;;;;;;20.49;58.43;99669.32;;;;-54
2019/10/15 15:41:35;;;;;;;2.55;1.81;;;;;;;20.51;58.58;99667.50;;;;-60
2019/10/15 15:44:35;;;;;;;3.69;2.05;;;;;;;20.51;58.58;99672.56;;;;-60
2019/10/15 15:47:34;;;;;;;4.81;2.15;;;;;;;20.52;58.53;99678.70;;;;-53
2019/10/15 15:50:35;;;;;;;2.87;1.80;;;;;;;20.53;58.49;99676.84;;;;-58
2019/10/15 15:53:35;;;;;;;3.36;1.90;;;;;;;20.53;58.57;99680.13;;;;-61
2019/10/15 15:56:35;;;;;;;2.73;1.89;;;;;;;20.54;58.44;99681.17;;;;-59
2019/10/15 15:59:35;;;;;;;2.85;1.90;;;;;;;20.55;58.56;99683.95;;;;-63
2019/10/15 16:02:35;;;;;;;3.53;1.82;;;;;;;20.55;58.49;99688.07;;;;-57
2019/10/15 16:05:35;;;;;;;2.37;1.75;;;;;;;20.56;58.46;99696.92;;;;-54
2019/10/15 16:08:35;;;;;;;2.56;1.85;;;;;;;20.57;58.49;99698.03;;;;-59
2019/10/15 16:11:35;;;;;;;2.23;1.79;;;;;;;20.57;58.68;99698.77;;;;-61
2019/10/15 16:14:35;;;;;;;3.29;1.73;;;;;;;20.58;58.58;99695.13;;;;-58
2019/10/15 16:17:35;;;;;;;2.93;1.89;;;;;;;20.58;58.64;99698.63;;;;-57
2019/10/15 16:20:35;;;;;;;11.76;2.23;;;;;;;20.59;58.75;99713.34;;;;-55
2019/10/15 16:23:35;;;;;;;17.85;2.88;;;;;;;20.59;58.60;99713.18;;;;-57
2019/10/15 16:26:35;;;;;;;3.46;2.04;;;;;;;20.60;58.78;99712.10;;;;-58
2019/10/15 16:29:35;;;;;;;5.80;2.21;;;;;;;20.61;58.74;99721.05;;;;-58
2019/10/15 16:32:34;;;;;;;4.73;1.82;;;;;;;20.63;58.68;99735.84;;;;-57
2019/10/15 16:35:34;;;;;;;5.23;1.91;;;;;;;20.63;58.76;99737.35;;;;-59
2019/10/15 16:38:35;;;;;;;4.61;1.82;;;;;;;20.62;58.77;99735.41;;;;-58
2019/10/15 16:41:35;;;;;;;3.51;1.80;;;;;;;20.63;58.73;99745.06;;;;-56
2019/10/15 16:44:35;;;;;;;3.93;1.90;;;;;;;20.65;58.61;99755.36;;;;-59
2019/10/15 16:47:35;;;;;;;3.55;1.99;;;;;;;20.64;58.73;99760.70;;;;-63
2019/10/15 16:50:35;;;;;;;3.52;1.86;;;;;;;20.64;58.56;99764.89;;;;-60
2019/10/15 16:53:35;;;;;;;5.91;1.83;;;;;;;20.65;58.66;99763.75;;;;-55
2019/10/15 16:56:35;;;;;;;6.80;1.97;;;;;;;20.66;58.55;99778.47;;;;-57
2019/10/15 16:59:35;;;;;;;3.80;1.80;;;;;;;20.65;58.54;99777.09;;;;-57
2019/10/15 17:02:35;;;;;;;3.26;1.90;;;;;;;20.66;58.60;99783.58;;;;-56